sensor_id;sensor_type;location;lat;lon;timestamp;temperature;humidity
10010;DHT22;5044;48.652;9.250;2023-03-20T00:01:47;8.50;99.90
10010;DHT22;5044;48.652;9.250;2023-03-20T00:04:14;8.50;99.90
10010;DHT22;5044;48.652;9.250;2023-03-20T00:06:41;8.40;99.90
10010;DHT22;5044;48.652;9.250;2023-03-20T00:09:09;8.40;99.90
10010;DHT22;5044;48.652;9.250;2023-03-20T00:11:43;8.40;99.90
10010;DHT22;5044;48.652;9.250;2023-03-20T00:14:16;8.40;99.90
10010;DHT22;5044;48.652;9.250;2023-03-20T00:16:45;8.40;99.90
10010;DHT22;5044;48.652;9.250;2023-03-20T00:19:15;8.40;99.90
10010;DHT22;5044;48.652;9.250;2023-03-20T00:21:42;8.40;99.90
10010;DHT22;5044;48.652;9.250;2023-03-20T00:24:10;8.60;99.90
10010;DHT22;5044;48.652;9.250;2023-03-20T00:26:37;8.40;99.90
10010;DHT22;5044;48.652;9.250;2023-03-20T00:29:05;8.40;99.90
10010;DHT22;5044;48.652;9.250;2023-03-20T00:31:35;8.40;99.90
10010;DHT22;5044;48.652;9.250;2023-03-20T00:34:04;8.40;99.90
10010;DHT22;5044;48.652;9.250;2023-03-20T00:36:32;8.40;99.90
10010;DHT22;5044;48.652;9.250;2023-03-20T00:38:59;8.40;99.90
10010;DHT22;5044;48.652;9.250;2023-03-20T00:41:27;8.40;99.90
10010;DHT22;5044;48.652;9.250;2023-03-20T00:43:58;8.40;99.90
10010;DHT22;5044;48.652;9.250;2023-03-20T00:46:26;8.30;99.90
10010;DHT22;5044;48.652;9.250;2023-03-20T00:48:55;8.30;99.90
10010;DHT22;5044;48.652;9.250;2023-03-20T00:51:22;8.40;99.90
10010;DHT22;5044;48.652;9.250;2023-03-20T00:53:49;8.30;99.90
10010;DHT22;5044;48.652;9.250;2023-03-20T00:56:32;8.30;99.90
10010;DHT22;5044;48.652;9.250;2023-03-20T00:59:00;8.20;99.90
10010;DHT22;5044;48.652;9.250;2023-03-20T01:01:29;8.20;99.90
10010;DHT22;5044;48.652;9.250;2023-03-20T01:03:58;8.20;99.90
10010;DHT22;5044;48.652;9.250;2023-03-20T01:06:25;8.20;99.90
10010;DHT22;5044;48.652;9.250;2023-03-20T01:08:53;8.20;99.90
10010;DHT22;5044;48.652;9.250;2023-03-20T01:11:22;8.20;99.90
10010;DHT22;5044;48.652;9.250;2023-03-20T01:13:49;8.20;99.90
10010;DHT22;5044;48.652;9.250;2023-03-20T01:16:20;8.20;99.90
10010;DHT22;5044;48.652;9.250;2023-03-20T01:18:47;8.20;99.90
10010;DHT22;5044;48.652;9.250;2023-03-20T01:21:16;8.20;99.90
10010;DHT22;5044;48.652;9.250;2023-03-20T01:23:44;8.20;99.90
10010;DHT22;5044;48.652;9.250;2023-03-20T01:26:21;8.20;99.90
10010;DHT22;5044;48.652;9.250;2023-03-20T01:28:50;8.20;99.90
10010;DHT22;5044;48.652;9.250;2023-03-20T01:31:17;8.20;99.90
10010;DHT22;5044;48.652;9.250;2023-03-20T01:33:44;8.50;99.90
10010;DHT22;5044;48.652;9.250;2023-03-20T01:36:12;8.10;99.90
10010;DHT22;5044;48.652;9.250;2023-03-20T01:38:42;8.10;99.90
10010;DHT22;5044;48.652;9.250;2023-03-20T01:41:12;8.10;99.90
10010;DHT22;5044;48.652;9.250;2023-03-20T01:43:39;8.10;99.90
10010;DHT22;5044;48.652;9.250;2023-03-20T01:46:16;8.10;99.90
10010;DHT22;5044;48.652;9.250;2023-03-20T01:49:06;8.10;99.90
10010;DHT22;5044;48.652;9.250;2023-03-20T01:51:33;8.10;99.90
10010;DHT22;5044;48.652;9.250;2023-03-20T01:54:06;8.00;99.90
10010;DHT22;5044;48.652;9.250;2023-03-20T01:56:38;8.00;99.90
10010;DHT22;5044;48.652;9.250;2023-03-20T01:59:09;8.00;99.90
10010;DHT22;5044;48.652;9.250;2023-03-20T02:01:39;8.00;99.90
10010;DHT22;5044;48.652;9.250;2023-03-20T02:04:06;8.00;99.90
10010;DHT22;5044;48.652;9.250;2023-03-20T02:06:34;8.00;99.90
10010;DHT22;5044;48.652;9.250;2023-03-20T02:09:03;8.00;99.90
10010;DHT22;5044;48.652;9.250;2023-03-20T02:11:30;8.00;99.90
10010;DHT22;5044;48.652;9.250;2023-03-20T02:13:59;8.00;99.90
10010;DHT22;5044;48.652;9.250;2023-03-20T02:16:26;8.00;99.90
10010;DHT22;5044;48.652;9.250;2023-03-20T02:18:54;8.10;99.90
10010;DHT22;5044;48.652;9.250;2023-03-20T02:21:55;8.00;99.90
10010;DHT22;5044;48.652;9.250;2023-03-20T02:24:47;8.00;99.90
10010;DHT22;5044;48.652;9.250;2023-03-20T02:27:24;8.00;99.90
10010;DHT22;5044;48.652;9.250;2023-03-20T02:30:37;8.20;99.90
10010;DHT22;5044;48.652;9.250;2023-03-20T02:33:46;8.10;99.90
10010;DHT22;5044;48.652;9.250;2023-03-20T02:36:45;8.10;99.90
10010;DHT22;5044;48.652;9.250;2023-03-20T02:39:38;8.00;99.90
10010;DHT22;5044;48.652;9.250;2023-03-20T02:42:11;8.00;99.90
10010;DHT22;5044;48.652;9.250;2023-03-20T02:44:46;8.10;99.90
10010;DHT22;5044;48.652;9.250;2023-03-20T02:47:22;8.00;99.90
10010;DHT22;5044;48.652;9.250;2023-03-20T02:49:53;8.00;99.90
10010;DHT22;5044;48.652;9.250;2023-03-20T02:52:27;8.00;99.90
10010;DHT22;5044;48.652;9.250;2023-03-20T02:55:08;8.00;99.90
10010;DHT22;5044;48.652;9.250;2023-03-20T02:57:42;8.00;99.90
10010;DHT22;5044;48.652;9.250;2023-03-20T03:00:14;8.10;99.90
10010;DHT22;5044;48.652;9.250;2023-03-20T03:02:47;8.00;99.90
10010;DHT22;5044;48.652;9.250;2023-03-20T03:05:20;8.00;99.90
10010;DHT22;5044;48.652;9.250;2023-03-20T03:07:50;8.00;99.90
10010;DHT22;5044;48.652;9.250;2023-03-20T03:10:22;8.00;99.90
10010;DHT22;5044;48.652;9.250;2023-03-20T03:12:52;8.00;99.90
10010;DHT22;5044;48.652;9.250;2023-03-20T03:15:25;8.10;99.90
10010;DHT22;5044;48.652;9.250;2023-03-20T03:17:54;8.10;99.90
10010;DHT22;5044;48.652;9.250;2023-03-20T03:20:26;8.20;99.90
10010;DHT22;5044;48.652;9.250;2023-03-20T03:22:54;8.10;99.90
10010;DHT22;5044;48.652;9.250;2023-03-20T03:25:25;8.00;99.90
10010;DHT22;5044;48.652;9.250;2023-03-20T03:27:58;8.00;99.90
10010;DHT22;5044;48.652;9.250;2023-03-20T03:30:28;8.00;99.90
10010;DHT22;5044;48.652;9.250;2023-03-20T03:33:11;8.00;99.90
10010;DHT22;5044;48.652;9.250;2023-03-20T03:35:40;8.00;99.90
10010;DHT22;5044;48.652;9.250;2023-03-20T03:38:19;8.00;99.90
10010;DHT22;5044;48.652;9.250;2023-03-20T03:40:55;8.00;99.90
10010;DHT22;5044;48.652;9.250;2023-03-20T03:43:29;8.00;99.90
10010;DHT22;5044;48.652;9.250;2023-03-20T03:45:58;8.00;99.90
10010;DHT22;5044;48.652;9.250;2023-03-20T03:48:29;8.00;99.90
10010;DHT22;5044;48.652;9.250;2023-03-20T03:51:00;7.90;99.90
10010;DHT22;5044;48.652;9.250;2023-03-20T03:53:31;8.10;99.90
10010;DHT22;5044;48.652;9.250;2023-03-20T03:56:03;8.00;99.90
10010;DHT22;5044;48.652;9.250;2023-03-20T03:58:34;7.90;99.90
10010;DHT22;5044;48.652;9.250;2023-03-20T04:01:04;8.00;99.90
10010;DHT22;5044;48.652;9.250;2023-03-20T04:03:37;8.00;99.90
10010;DHT22;5044;48.652;9.250;2023-03-20T04:06:05;7.90;99.90
10010;DHT22;5044;48.652;9.250;2023-03-20T04:08:34;8.00;99.90
10010;DHT22;5044;48.652;9.250;2023-03-20T04:11:02;8.00;99.90
10010;DHT22;5044;48.652;9.250;2023-03-20T04:13:29;8.00;99.90
10010;DHT22;5044;48.652;9.250;2023-03-20T04:15:56;7.90;99.90
10010;DHT22;5044;48.652;9.250;2023-03-20T04:18:23;8.00;99.90
10010;DHT22;5044;48.652;9.250;2023-03-20T04:20:50;8.00;99.90
10010;DHT22;5044;48.652;9.250;2023-03-20T04:23:17;8.00;99.90
10010;DHT22;5044;48.652;9.250;2023-03-20T04:25:44;7.90;99.90
10010;DHT22;5044;48.652;9.250;2023-03-20T04:28:13;7.90;99.90
10010;DHT22;5044;48.652;9.250;2023-03-20T04:30:41;7.90;99.90
10010;DHT22;5044;48.652;9.250;2023-03-20T04:33:08;7.90;99.90
10010;DHT22;5044;48.652;9.250;2023-03-20T04:35:35;7.90;99.90
10010;DHT22;5044;48.652;9.250;2023-03-20T04:38:02;7.90;99.90
10010;DHT22;5044;48.652;9.250;2023-03-20T04:40:29;7.90;99.90
10010;DHT22;5044;48.652;9.250;2023-03-20T04:42:56;7.90;99.90
10010;DHT22;5044;48.652;9.250;2023-03-20T04:45:25;7.90;99.90
10010;DHT22;5044;48.652;9.250;2023-03-20T04:47:52;7.90;99.90
10010;DHT22;5044;48.652;9.250;2023-03-20T04:50:18;7.90;99.90
10010;DHT22;5044;48.652;9.250;2023-03-20T04:52:45;7.90;99.90
10010;DHT22;5044;48.652;9.250;2023-03-20T04:55:12;7.90;99.90
10010;DHT22;5044;48.652;9.250;2023-03-20T04:57:39;7.80;99.90
10010;DHT22;5044;48.652;9.250;2023-03-20T05:00:07;7.80;99.90
10010;DHT22;5044;48.652;9.250;2023-03-20T05:02:35;7.80;99.90
10010;DHT22;5044;48.652;9.250;2023-03-20T05:05:03;7.80;99.90
10010;DHT22;5044;48.652;9.250;2023-03-20T05:07:30;7.80;99.90
10010;DHT22;5044;48.652;9.250;2023-03-20T05:09:57;7.80;99.90
10010;DHT22;5044;48.652;9.250;2023-03-20T05:12:24;7.80;99.90
10010;DHT22;5044;48.652;9.250;2023-03-20T05:14:51;7.70;99.90
10010;DHT22;5044;48.652;9.250;2023-03-20T05:17:19;7.80;99.90
10010;DHT22;5044;48.652;9.250;2023-03-20T05:19:47;7.80;99.90
10010;DHT22;5044;48.652;9.250;2023-03-20T05:22:14;7.70;99.90
10010;DHT22;5044;48.652;9.250;2023-03-20T05:24:41;7.70;99.90
10010;DHT22;5044;48.652;9.250;2023-03-20T05:27:08;7.60;99.90
10010;DHT22;5044;48.652;9.250;2023-03-20T05:29:36;7.70;99.90
10010;DHT22;5044;48.652;9.250;2023-03-20T05:32:03;7.70;99.90
10010;DHT22;5044;48.652;9.250;2023-03-20T05:34:30;7.70;99.90
10010;DHT22;5044;48.652;9.250;2023-03-20T05:36:58;7.70;99.90
10010;DHT22;5044;48.652;9.250;2023-03-20T05:39:25;7.60;99.90
10010;DHT22;5044;48.652;9.250;2023-03-20T05:41:52;7.60;99.90
10010;DHT22;5044;48.652;9.250;2023-03-20T05:44:19;7.60;99.90
10010;DHT22;5044;48.652;9.250;2023-03-20T05:46:46;7.70;99.90
10010;DHT22;5044;48.652;9.250;2023-03-20T05:49:13;7.60;99.90
10010;DHT22;5044;48.652;9.250;2023-03-20T05:51:40;7.60;99.90
10010;DHT22;5044;48.652;9.250;2023-03-20T05:54:08;7.80;99.90
10010;DHT22;5044;48.652;9.250;2023-03-20T05:56:35;7.60;99.90
10010;DHT22;5044;48.652;9.250;2023-03-20T05:59:02;7.70;99.90
10010;DHT22;5044;48.652;9.250;2023-03-20T06:01:29;8.00;99.90
10010;DHT22;5044;48.652;9.250;2023-03-20T06:03:56;7.70;99.90
10010;DHT22;5044;48.652;9.250;2023-03-20T06:06:23;7.70;99.90
10010;DHT22;5044;48.652;9.250;2023-03-20T06:08:49;7.80;99.90
10010;DHT22;5044;48.652;9.250;2023-03-20T06:11:18;7.80;99.90
10010;DHT22;5044;48.652;9.250;2023-03-20T06:13:45;7.80;99.90
10010;DHT22;5044;48.652;9.250;2023-03-20T06:16:12;7.80;99.90
10010;DHT22;5044;48.652;9.250;2023-03-20T06:18:39;7.80;99.90
10010;DHT22;5044;48.652;9.250;2023-03-20T06:21:06;7.80;99.90
10010;DHT22;5044;48.652;9.250;2023-03-20T06:23:33;7.90;99.90
10010;DHT22;5044;48.652;9.250;2023-03-20T06:26:00;7.90;99.90
10010;DHT22;5044;48.652;9.250;2023-03-20T06:28:29;7.90;99.90
10010;DHT22;5044;48.652;9.250;2023-03-20T06:30:56;8.00;99.90
10010;DHT22;5044;48.652;9.250;2023-03-20T06:33:23;8.00;99.90
10010;DHT22;5044;48.652;9.250;2023-03-20T06:35:50;8.00;99.90
10010;DHT22;5044;48.652;9.250;2023-03-20T06:38:17;8.10;99.90
10010;DHT22;5044;48.652;9.250;2023-03-20T06:40:44;8.10;99.90
10010;DHT22;5044;48.652;9.250;2023-03-20T06:43:11;8.20;99.90
10010;DHT22;5044;48.652;9.250;2023-03-20T06:45:39;8.20;99.90
10010;DHT22;5044;48.652;9.250;2023-03-20T06:48:06;8.20;99.90
10010;DHT22;5044;48.652;9.250;2023-03-20T06:50:33;8.30;99.90
10010;DHT22;5044;48.652;9.250;2023-03-20T06:53:00;8.30;99.90
10010;DHT22;5044;48.652;9.250;2023-03-20T06:55:27;8.40;99.90
10010;DHT22;5044;48.652;9.250;2023-03-20T06:57:55;8.50;99.90
10010;DHT22;5044;48.652;9.250;2023-03-20T07:00:23;8.50;99.90
10010;DHT22;5044;48.652;9.250;2023-03-20T07:02:51;8.70;99.90
10010;DHT22;5044;48.652;9.250;2023-03-20T07:05:18;8.80;99.90
10010;DHT22;5044;48.652;9.250;2023-03-20T07:07:45;8.80;99.90
10010;DHT22;5044;48.652;9.250;2023-03-20T07:10:12;8.90;99.90
10010;DHT22;5044;48.652;9.250;2023-03-20T07:12:40;9.00;99.90
10010;DHT22;5044;48.652;9.250;2023-03-20T07:15:10;9.10;99.90
10010;DHT22;5044;48.652;9.250;2023-03-20T07:17:37;9.20;99.90
10010;DHT22;5044;48.652;9.250;2023-03-20T07:20:07;9.30;99.90
10010;DHT22;5044;48.652;9.250;2023-03-20T07:22:34;9.50;99.90
10010;DHT22;5044;48.652;9.250;2023-03-20T07:25:02;9.60;99.90
10010;DHT22;5044;48.652;9.250;2023-03-20T07:27:29;9.70;99.90
10010;DHT22;5044;48.652;9.250;2023-03-20T07:29:56;9.80;99.90
10010;DHT22;5044;48.652;9.250;2023-03-20T07:32:23;9.90;99.90
10010;DHT22;5044;48.652;9.250;2023-03-20T07:34:50;9.90;99.90
10010;DHT22;5044;48.652;9.250;2023-03-20T07:37:18;9.80;99.90
10010;DHT22;5044;48.652;9.250;2023-03-20T07:39:45;9.90;99.90
10010;DHT22;5044;48.652;9.250;2023-03-20T07:42:14;9.70;99.90
10010;DHT22;5044;48.652;9.250;2023-03-20T07:44:42;9.80;99.90
10010;DHT22;5044;48.652;9.250;2023-03-20T07:47:09;9.90;99.90
10010;DHT22;5044;48.652;9.250;2023-03-20T07:49:36;10.00;99.90
10010;DHT22;5044;48.652;9.250;2023-03-20T07:52:03;10.00;99.90
10010;DHT22;5044;48.652;9.250;2023-03-20T07:54:31;10.10;99.90
10010;DHT22;5044;48.652;9.250;2023-03-20T07:56:58;10.20;99.90
10010;DHT22;5044;48.652;9.250;2023-03-20T07:59:25;10.50;99.90
10010;DHT22;5044;48.652;9.250;2023-03-20T08:01:54;10.40;99.90
10010;DHT22;5044;48.652;9.250;2023-03-20T08:04:21;10.50;99.90
10010;DHT22;5044;48.652;9.250;2023-03-20T08:06:50;10.50;99.90
10010;DHT22;5044;48.652;9.250;2023-03-20T08:09:25;10.50;99.90
10010;DHT22;5044;48.652;9.250;2023-03-20T08:11:53;10.60;99.90
10010;DHT22;5044;48.652;9.250;2023-03-20T08:14:20;10.70;99.90
10010;DHT22;5044;48.652;9.250;2023-03-20T08:16:47;10.90;99.90
10010;DHT22;5044;48.652;9.250;2023-03-20T08:19:15;11.00;99.90
10010;DHT22;5044;48.652;9.250;2023-03-20T08:21:42;11.10;99.90
10010;DHT22;5044;48.652;9.250;2023-03-20T08:24:09;11.20;99.90
10010;DHT22;5044;48.652;9.250;2023-03-20T08:26:36;11.30;99.90
10010;DHT22;5044;48.652;9.250;2023-03-20T08:29:05;11.40;99.90
10010;DHT22;5044;48.652;9.250;2023-03-20T08:31:32;11.70;99.90
10010;DHT22;5044;48.652;9.250;2023-03-20T08:33:59;11.40;99.90
10010;DHT22;5044;48.652;9.250;2023-03-20T08:36:26;11.20;99.90
10010;DHT22;5044;48.652;9.250;2023-03-20T08:38:53;11.20;99.90
10010;DHT22;5044;48.652;9.250;2023-03-20T08:41:22;11.00;99.90
10010;DHT22;5044;48.652;9.250;2023-03-20T08:43:49;11.00;99.90
10010;DHT22;5044;48.652;9.250;2023-03-20T08:46:17;11.10;99.90
10010;DHT22;5044;48.652;9.250;2023-03-20T08:48:44;11.40;99.90
10010;DHT22;5044;48.652;9.250;2023-03-20T08:51:11;11.30;99.90
10010;DHT22;5044;48.652;9.250;2023-03-20T08:53:38;11.30;99.90
10010;DHT22;5044;48.652;9.250;2023-03-20T08:56:06;11.40;99.90
10010;DHT22;5044;48.652;9.250;2023-03-20T08:58:33;11.20;99.90
10010;DHT22;5044;48.652;9.250;2023-03-20T09:04:23;11.70;99.90
10010;DHT22;5044;48.652;9.250;2023-03-20T09:09:52;12.20;97.60
10010;DHT22;5044;48.652;9.250;2023-03-20T09:12:33;12.20;97.70
10010;DHT22;5044;48.652;9.250;2023-03-20T09:15:21;12.30;97.30
10010;DHT22;5044;48.652;9.250;2023-03-20T09:18:40;12.40;95.80
10010;DHT22;5044;48.652;9.250;2023-03-20T09:21:20;12.20;96.70
10010;DHT22;5044;48.652;9.250;2023-03-20T09:24:00;12.30;97.50
10010;DHT22;5044;48.652;9.250;2023-03-20T09:26:48;12.30;98.00
10010;DHT22;5044;48.652;9.250;2023-03-20T09:29:39;12.50;96.50
10010;DHT22;5044;48.652;9.250;2023-03-20T09:32:22;12.90;94.80
10010;DHT22;5044;48.652;9.250;2023-03-20T09:35:11;12.90;94.20
10010;DHT22;5044;48.652;9.250;2023-03-20T09:38:08;12.90;95.90
10010;DHT22;5044;48.652;9.250;2023-03-20T09:41:16;12.80;95.40
10010;DHT22;5044;48.652;9.250;2023-03-20T09:44:25;13.00;94.80
10010;DHT22;5044;48.652;9.250;2023-03-20T09:47:29;13.40;93.10
10010;DHT22;5044;48.652;9.250;2023-03-20T09:50:34;13.50;92.80
10010;DHT22;5044;48.652;9.250;2023-03-20T09:53:46;13.70;91.20
10010;DHT22;5044;48.652;9.250;2023-03-20T09:56:21;13.50;91.90
10010;DHT22;5044;48.652;9.250;2023-03-20T09:59:42;13.60;92.40
10010;DHT22;5044;48.652;9.250;2023-03-20T10:03:06;13.90;91.70
10010;DHT22;5044;48.652;9.250;2023-03-20T10:05:45;13.90;91.90
10010;DHT22;5044;48.652;9.250;2023-03-20T10:08:47;13.90;91.70
10010;DHT22;5044;48.652;9.250;2023-03-20T10:11:57;13.20;86.00
10010;DHT22;5044;48.652;9.250;2023-03-20T10:14:59;13.30;91.40
10010;DHT22;5044;48.652;9.250;2023-03-20T10:18:03;13.30;89.50
10010;DHT22;5044;48.652;9.250;2023-03-20T10:20:56;13.30;92.00
10010;DHT22;5044;48.652;9.250;2023-03-20T10:23:41;13.10;86.30
10010;DHT22;5044;48.652;9.250;2023-03-20T10:26:30;12.90;91.10
10010;DHT22;5044;48.652;9.250;2023-03-20T10:29:29;12.90;85.90
10010;DHT22;5044;48.652;9.250;2023-03-20T10:32:32;13.20;90.40
10010;DHT22;5044;48.652;9.250;2023-03-20T10:35:36;12.80;89.90
10010;DHT22;5044;48.652;9.250;2023-03-20T10:38:28;12.80;90.60
10010;DHT22;5044;48.652;9.250;2023-03-20T10:41:27;12.70;90.30
10010;DHT22;5044;48.652;9.250;2023-03-20T10:44:19;12.80;88.60
10010;DHT22;5044;48.652;9.250;2023-03-20T10:47:08;12.80;91.80
10010;DHT22;5044;48.652;9.250;2023-03-20T10:49:44;12.80;90.40
10010;DHT22;5044;48.652;9.250;2023-03-20T10:55:31;12.90;84.70
10010;DHT22;5044;48.652;9.250;2023-03-20T10:58:28;13.20;85.80
10010;DHT22;5044;48.652;9.250;2023-03-20T11:01:26;13.40;85.00
10010;DHT22;5044;48.652;9.250;2023-03-20T11:04:14;13.50;80.30
10010;DHT22;5044;48.652;9.250;2023-03-20T11:07:05;13.50;80.40
10010;DHT22;5044;48.652;9.250;2023-03-20T11:09:41;13.70;85.30
10010;DHT22;5044;48.652;9.250;2023-03-20T11:12:30;13.80;87.90
10010;DHT22;5044;48.652;9.250;2023-03-20T11:15:22;13.70;82.70
10010;DHT22;5044;48.652;9.250;2023-03-20T11:18:23;13.60;82.00
10010;DHT22;5044;48.652;9.250;2023-03-20T11:21:20;13.90;82.30
10010;DHT22;5044;48.652;9.250;2023-03-20T11:24:41;14.20;87.40
10010;DHT22;5044;48.652;9.250;2023-03-20T11:27:33;14.20;82.10
10010;DHT22;5044;48.652;9.250;2023-03-20T11:30:25;14.40;83.80
10010;DHT22;5044;48.652;9.250;2023-03-20T11:33:09;14.10;77.40
10010;DHT22;5044;48.652;9.250;2023-03-20T11:36:09;14.00;82.40
10010;DHT22;5044;48.652;9.250;2023-03-20T11:39:16;14.10;76.10
10010;DHT22;5044;48.652;9.250;2023-03-20T11:42:24;14.10;81.00
10010;DHT22;5044;48.652;9.250;2023-03-20T11:45:24;13.90;74.00
10010;DHT22;5044;48.652;9.250;2023-03-20T11:48:59;13.70;77.00
10010;DHT22;5044;48.652;9.250;2023-03-20T11:52:02;14.00;75.80
10010;DHT22;5044;48.652;9.250;2023-03-20T11:55:19;14.00;71.70
10010;DHT22;5044;48.652;9.250;2023-03-20T11:58:10;13.90;71.60
10010;DHT22;5044;48.652;9.250;2023-03-20T12:01:11;13.60;73.90
10010;DHT22;5044;48.652;9.250;2023-03-20T12:07:02;13.90;77.80
10010;DHT22;5044;48.652;9.250;2023-03-20T12:09:49;14.30;76.50
10010;DHT22;5044;48.652;9.250;2023-03-20T12:12:53;14.40;76.50
10010;DHT22;5044;48.652;9.250;2023-03-20T12:15:38;14.10;71.00
10010;DHT22;5044;48.652;9.250;2023-03-20T12:18:39;14.20;73.20
10010;DHT22;5044;48.652;9.250;2023-03-20T12:21:35;14.60;73.00
10010;DHT22;5044;48.652;9.250;2023-03-20T12:24:52;14.60;73.00
10010;DHT22;5044;48.652;9.250;2023-03-20T12:30:38;14.90;73.90
10010;DHT22;5044;48.652;9.250;2023-03-20T12:42:33;15.70;61.50
10010;DHT22;5044;48.652;9.250;2023-03-20T12:45:34;15.10;65.90
10010;DHT22;5044;48.652;9.250;2023-03-20T12:48:40;15.40;65.70
10010;DHT22;5044;48.652;9.250;2023-03-20T12:51:42;15.00;67.00
10010;DHT22;5044;48.652;9.250;2023-03-20T12:54:55;14.90;65.90
10010;DHT22;5044;48.652;9.250;2023-03-20T12:58:03;14.60;65.30
10010;DHT22;5044;48.652;9.250;2023-03-20T13:01:05;15.00;77.90
10010;DHT22;5044;48.652;9.250;2023-03-20T13:04:26;15.10;64.50
10010;DHT22;5044;48.652;9.250;2023-03-20T13:07:31;15.50;75.00
10010;DHT22;5044;48.652;9.250;2023-03-20T13:10:38;15.60;70.90
10010;DHT22;5044;48.652;9.250;2023-03-20T13:16:07;15.00;70.40
10010;DHT22;5044;48.652;9.250;2023-03-20T13:18:52;15.10;67.00
10010;DHT22;5044;48.652;9.250;2023-03-20T13:21:49;14.70;66.90
10010;DHT22;5044;48.652;9.250;2023-03-20T13:25:02;14.70;72.60
10010;DHT22;5044;48.652;9.250;2023-03-20T13:27:52;15.00;70.70
10010;DHT22;5044;48.652;9.250;2023-03-20T13:30:32;14.70;67.20
10010;DHT22;5044;48.652;9.250;2023-03-20T13:33:39;14.70;73.30
10010;DHT22;5044;48.652;9.250;2023-03-20T13:40:02;15.40;70.70
10010;DHT22;5044;48.652;9.250;2023-03-20T13:42:48;15.00;76.40
10010;DHT22;5044;48.652;9.250;2023-03-20T13:45:32;14.70;68.20
10010;DHT22;5044;48.652;9.250;2023-03-20T13:49:14;14.20;75.30
10010;DHT22;5044;48.652;9.250;2023-03-20T13:52:14;14.60;75.80
10010;DHT22;5044;48.652;9.250;2023-03-20T14:01:39;15.20;75.80
10010;DHT22;5044;48.652;9.250;2023-03-20T14:07:59;14.70;64.60
10010;DHT22;5044;48.652;9.250;2023-03-20T14:11:24;14.80;65.70
10010;DHT22;5044;48.652;9.250;2023-03-20T14:14:39;14.50;69.20
10010;DHT22;5044;48.652;9.250;2023-03-20T14:17:26;14.50;65.90
10010;DHT22;5044;48.652;9.250;2023-03-20T14:20:49;14.70;67.10
10010;DHT22;5044;48.652;9.250;2023-03-20T14:24:26;14.70;68.20
10010;DHT22;5044;48.652;9.250;2023-03-20T14:26:53;14.60;64.40
10010;DHT22;5044;48.652;9.250;2023-03-20T14:33:21;14.20;71.00
10010;DHT22;5044;48.652;9.250;2023-03-20T14:36:19;14.20;72.60
10010;DHT22;5044;48.652;9.250;2023-03-20T14:39:17;13.90;67.30
10010;DHT22;5044;48.652;9.250;2023-03-20T14:42:28;13.90;72.30
10010;DHT22;5044;48.652;9.250;2023-03-20T14:46:05;14.20;69.60
10010;DHT22;5044;48.652;9.250;2023-03-20T14:49:18;14.40;73.80
10010;DHT22;5044;48.652;9.250;2023-03-20T14:52:21;14.40;70.10
10010;DHT22;5044;48.652;9.250;2023-03-20T14:55:26;14.30;67.20
10010;DHT22;5044;48.652;9.250;2023-03-20T15:01:56;14.40;66.70
10010;DHT22;5044;48.652;9.250;2023-03-20T15:05:04;14.30;66.50
10010;DHT22;5044;48.652;9.250;2023-03-20T15:07:53;14.50;74.20
10010;DHT22;5044;48.652;9.250;2023-03-20T15:18:02;13.90;66.40
10010;DHT22;5044;48.652;9.250;2023-03-20T15:21:08;13.60;65.80
10010;DHT22;5044;48.652;9.250;2023-03-20T15:23:57;13.70;75.90
10010;DHT22;5044;48.652;9.250;2023-03-20T15:26:31;13.60;65.50
10010;DHT22;5044;48.652;9.250;2023-03-20T15:29:04;13.60;69.10
10010;DHT22;5044;48.652;9.250;2023-03-20T15:31:36;13.50;68.70
10010;DHT22;5044;48.652;9.250;2023-03-20T15:34:21;13.50;68.00
10010;DHT22;5044;48.652;9.250;2023-03-20T15:36:59;13.50;66.40
10010;DHT22;5044;48.652;9.250;2023-03-20T15:39:44;13.40;74.90
10010;DHT22;5044;48.652;9.250;2023-03-20T15:42:20;13.80;71.50
10010;DHT22;5044;48.652;9.250;2023-03-20T15:44:56;13.40;66.10
10010;DHT22;5044;48.652;9.250;2023-03-20T15:47:27;13.20;69.20
10010;DHT22;5044;48.652;9.250;2023-03-20T15:49:58;13.30;70.50
10010;DHT22;5044;48.652;9.250;2023-03-20T15:52:39;13.30;72.90
10010;DHT22;5044;48.652;9.250;2023-03-20T15:55:13;13.30;74.20
10010;DHT22;5044;48.652;9.250;2023-03-20T15:57:44;13.30;72.50
10010;DHT22;5044;48.652;9.250;2023-03-20T16:00:21;13.10;70.00
10010;DHT22;5044;48.652;9.250;2023-03-20T16:02:51;13.00;73.90
10010;DHT22;5044;48.652;9.250;2023-03-20T16:05:22;12.90;75.20
10010;DHT22;5044;48.652;9.250;2023-03-20T16:07:51;12.80;77.20
10010;DHT22;5044;48.652;9.250;2023-03-20T16:10:20;12.90;78.30
10010;DHT22;5044;48.652;9.250;2023-03-20T16:12:49;12.80;75.40
10010;DHT22;5044;48.652;9.250;2023-03-20T16:15:18;12.80;77.10
10010;DHT22;5044;48.652;9.250;2023-03-20T16:17:53;12.80;79.60
10010;DHT22;5044;48.652;9.250;2023-03-20T16:20:31;12.70;78.50
10010;DHT22;5044;48.652;9.250;2023-03-20T16:23:03;12.80;77.20
10010;DHT22;5044;48.652;9.250;2023-03-20T16:25:34;12.70;75.80
10010;DHT22;5044;48.652;9.250;2023-03-20T16:28:05;13.00;77.30
10010;DHT22;5044;48.652;9.250;2023-03-20T16:30:33;12.80;77.50
10010;DHT22;5044;48.652;9.250;2023-03-20T16:33:07;12.80;76.00
10010;DHT22;5044;48.652;9.250;2023-03-20T16:35:38;12.60;75.80
10010;DHT22;5044;48.652;9.250;2023-03-20T16:38:25;12.60;77.90
10010;DHT22;5044;48.652;9.250;2023-03-20T16:40:56;12.60;77.80
10010;DHT22;5044;48.652;9.250;2023-03-20T16:43:39;12.70;81.50
10010;DHT22;5044;48.652;9.250;2023-03-20T16:46:09;12.70;77.30
10010;DHT22;5044;48.652;9.250;2023-03-20T16:48:44;12.50;77.00
10010;DHT22;5044;48.652;9.250;2023-03-20T16:51:16;12.50;77.30
10010;DHT22;5044;48.652;9.250;2023-03-20T16:53:53;12.40;77.70
10010;DHT22;5044;48.652;9.250;2023-03-20T16:56:28;12.30;76.70
10010;DHT22;5044;48.652;9.250;2023-03-20T16:59:09;12.20;78.80
10010;DHT22;5044;48.652;9.250;2023-03-20T17:01:42;12.20;80.30
10010;DHT22;5044;48.652;9.250;2023-03-20T17:04:18;12.10;80.00
10010;DHT22;5044;48.652;9.250;2023-03-20T17:06:48;12.10;82.50
10010;DHT22;5044;48.652;9.250;2023-03-20T17:09:30;12.10;82.50
10010;DHT22;5044;48.652;9.250;2023-03-20T17:12:03;11.90;79.90
10010;DHT22;5044;48.652;9.250;2023-03-20T17:14:33;11.80;85.60
10010;DHT22;5044;48.652;9.250;2023-03-20T17:17:00;11.70;83.80
10010;DHT22;5044;48.652;9.250;2023-03-20T17:19:31;11.80;84.20
10010;DHT22;5044;48.652;9.250;2023-03-20T17:21:58;11.90;85.30
10010;DHT22;5044;48.652;9.250;2023-03-20T17:24:32;11.80;86.30
10010;DHT22;5044;48.652;9.250;2023-03-20T17:27:01;11.80;89.60
10010;DHT22;5044;48.652;9.250;2023-03-20T17:29:35;11.80;87.40
10010;DHT22;5044;48.652;9.250;2023-03-20T17:32:10;11.70;88.60
10010;DHT22;5044;48.652;9.250;2023-03-20T17:34:39;11.80;88.40
10010;DHT22;5044;48.652;9.250;2023-03-20T17:37:14;11.70;87.10
10010;DHT22;5044;48.652;9.250;2023-03-20T17:39:56;11.50;89.00
10010;DHT22;5044;48.652;9.250;2023-03-20T17:42:26;11.50;90.10
10010;DHT22;5044;48.652;9.250;2023-03-20T17:44:57;11.50;90.40
10010;DHT22;5044;48.652;9.250;2023-03-20T17:47:28;11.40;90.20
10010;DHT22;5044;48.652;9.250;2023-03-20T17:49:58;11.40;90.10
10010;DHT22;5044;48.652;9.250;2023-03-20T17:52:28;11.40;91.60
10010;DHT22;5044;48.652;9.250;2023-03-20T17:55:00;11.20;90.20
10010;DHT22;5044;48.652;9.250;2023-03-20T17:57:37;11.20;91.00
10010;DHT22;5044;48.652;9.250;2023-03-20T18:00:16;11.20;90.50